createdAt,value
2019-06-08T00:00:04.794Z,306.53
2019-06-08T00:01:04.797Z,311.93
2019-06-08T00:02:04.788Z,305.09
2019-06-08T00:03:04.799Z,311.24
2019-06-08T00:04:04.766Z,305.26
2019-06-08T00:05:04.819Z,311.33
2019-06-08T00:06:04.735Z,305.20
2019-06-08T00:07:04.736Z,311.52
2019-06-08T00:08:04.749Z,305.60
2019-06-08T00:09:04.703Z,310.82
2019-06-08T00:10:04.703Z,305.69
2019-06-08T00:11:04.699Z,311.01
2019-06-08T00:12:04.665Z,304.91
2019-06-08T00:13:04.693Z,310.81
2019-06-08T00:14:04.663Z,305.32
2019-06-08T00:15:04.650Z,311.23
2019-06-08T00:16:04.635Z,311.16
2019-06-08T00:17:04.619Z,310.55
2019-06-08T00:18:04.634Z,310.80
2019-06-08T00:19:04.586Z,310.77
2019-06-08T00:20:04.582Z,305.20
2019-06-08T00:21:04.599Z,311.51
2019-06-08T00:22:04.574Z,305.58
2019-06-08T00:23:04.581Z,311.16
2019-06-08T00:24:04.552Z,310.74
2019-06-08T00:25:04.542Z,311.53
2019-06-08T00:26:04.518Z,305.14
2019-06-08T00:27:04.528Z,310.61
2019-06-08T00:28:04.536Z,304.77
2019-06-08T00:29:04.516Z,311.33
2019-06-08T00:30:04.467Z,306.19
2019-06-08T00:31:04.464Z,310.60
2019-06-08T00:32:04.484Z,306.42
2019-06-08T00:33:04.490Z,311.62
2019-06-08T00:34:04.431Z,305.19
2019-06-08T00:35:04.418Z,310.85
2019-06-08T00:36:04.406Z,304.82
2019-06-08T00:37:04.388Z,311.08
2019-06-08T00:38:04.422Z,305.40
2019-06-08T00:39:04.366Z,310.70
2019-06-08T00:40:04.360Z,305.10
2019-06-08T00:41:04.356Z,311.41
2019-06-08T00:42:04.332Z,305.36
2019-06-08T00:43:04.348Z,310.98
2019-06-08T00:44:04.338Z,310.76
2019-06-08T00:45:04.318Z,310.14
2019-06-08T00:46:04.288Z,310.56
2019-06-08T00:47:04.276Z,311.28
2019-06-08T00:48:04.300Z,311.18
2019-06-08T00:49:04.258Z,310.54
2019-06-08T00:50:04.250Z,310.74
2019-06-08T00:51:04.244Z,310.37
2019-06-08T00:52:04.229Z,310.70
2019-06-08T00:53:04.230Z,310.60
2019-06-08T00:54:04.198Z,310.98
2019-06-08T00:55:04.189Z,310.09
2019-06-08T00:56:04.184Z,310.44
2019-06-08T00:57:04.170Z,310.25
2019-06-08T00:58:04.209Z,311.38
2019-06-08T00:59:04.147Z,311.00
2019-06-08T01:00:10.173Z,310.89
2019-06-08T01:01:05.121Z,311.34
2019-06-08T01:02:04.106Z,310.13
2019-06-08T01:03:04.100Z,311.27
2019-06-08T01:04:04.105Z,310.81
2019-06-08T01:05:04.076Z,311.17
2019-06-08T01:06:04.079Z,310.36
2019-06-08T01:07:04.080Z,310.92
2019-06-08T01:08:04.249Z,311.31
2019-06-08T01:09:04.051Z,310.71
2019-06-08T01:10:04.043Z,310.99
2019-06-08T01:11:04.012Z,310.20
2019-06-08T01:12:04.005Z,311.00
2019-06-08T01:13:04.006Z,310.51
2019-06-08T01:14:04.001Z,310.10
2019-06-08T01:15:03.988Z,310.65
2019-06-08T01:16:03.961Z,311.38
2019-06-08T01:17:03.961Z,310.61
2019-06-08T01:18:04.347Z,311.24
2019-06-08T01:19:03.943Z,310.86
2019-06-08T01:20:03.916Z,310.48
2019-06-08T01:21:03.897Z,310.57
2019-06-08T01:22:03.921Z,312.55
2019-06-08T01:23:03.882Z,312.47
2019-06-08T01:24:03.880Z,311.01
2019-06-08T01:25:03.867Z,310.84
2019-06-08T01:26:03.843Z,311.89
2019-06-08T01:27:03.827Z,311.36
2019-06-08T01:28:03.830Z,310.85
2019-06-08T01:29:03.840Z,311.80
2019-06-08T01:30:03.806Z,310.67
2019-06-08T01:31:03.785Z,311.42
2019-06-08T01:32:03.776Z,310.31
2019-06-08T01:33:03.800Z,310.82
2019-06-08T01:34:03.776Z,311.17
2019-06-08T01:35:03.825Z,310.81
2019-06-08T01:36:03.739Z,311.31
2019-06-08T01:37:03.724Z,311.07
2019-06-08T01:38:03.706Z,311.72
2019-06-08T01:39:03.702Z,311.36
2019-06-08T01:40:03.711Z,311.22
2019-06-08T01:41:03.675Z,312.04
2019-06-08T01:42:03.675Z,311.52
2019-06-08T01:43:03.653Z,310.75
2019-06-08T01:44:03.638Z,311.90
2019-06-08T01:45:03.825Z,310.66
2019-06-08T01:46:03.618Z,310.40
2019-06-08T01:47:03.614Z,310.55
2019-06-08T01:48:18.737Z,311.00
2019-06-08T01:49:04.585Z,310.83
2019-06-08T01:50:03.592Z,310.60
2019-06-08T01:51:03.664Z,310.87
2019-06-08T01:52:03.552Z,310.60
2019-06-08T01:53:04.422Z,312.58
2019-06-08T01:54:03.535Z,309.85
2019-06-08T01:55:03.543Z,310.59
2019-06-08T01:56:03.511Z,310.38
2019-06-08T01:57:03.496Z,311.66
2019-06-08T01:58:03.476Z,311.30
2019-06-08T01:59:03.476Z,308.49
2019-06-08T02:00:28.736Z,309.62
2019-06-08T02:01:04.471Z,307.85
2019-06-08T02:02:03.468Z,310.34
2019-06-08T02:03:03.443Z,308.80
2019-06-08T02:04:03.420Z,308.23
2019-06-08T02:05:03.406Z,308.38
2019-06-08T02:06:03.449Z,308.11
2019-06-08T02:07:03.390Z,308.00
2019-06-08T02:08:03.366Z,309.40
2019-06-08T02:09:03.370Z,308.50
2019-06-08T02:10:03.352Z,306.83
2019-06-08T02:11:03.355Z,307.33
2019-06-08T02:12:03.328Z,306.65
2019-06-08T02:13:03.318Z,304.11
2019-06-08T02:14:03.307Z,307.22
2019-06-08T02:15:03.302Z,305.69
2019-06-08T02:16:03.309Z,307.60
2019-06-08T02:17:03.270Z,304.92
2019-06-08T02:18:03.254Z,305.95
2019-06-08T02:19:03.365Z,307.28
2019-06-08T02:20:03.241Z,308.80
2019-06-08T02:21:03.253Z,307.75
2019-06-08T02:22:03.245Z,307.37
2019-06-08T02:23:03.220Z,307.06
2019-06-08T02:24:03.198Z,306.84
2019-06-08T02:25:03.176Z,306.75
2019-06-08T02:26:03.195Z,306.67
2019-06-08T02:27:03.160Z,306.61
2019-06-08T02:28:03.286Z,306.27
2019-06-08T02:29:03.137Z,305.64
2019-06-08T02:30:03.125Z,309.25
2019-06-08T02:31:03.131Z,306.14
2019-06-08T02:32:03.098Z,305.49
2019-06-08T02:33:03.094Z,306.07
2019-06-08T02:34:03.084Z,309.53
2019-06-08T02:35:03.091Z,310.12
2019-06-08T02:36:03.086Z,307.70
2019-06-08T02:37:03.056Z,308.02
2019-06-08T02:38:03.023Z,309.59
2019-06-08T02:39:03.024Z,309.42
2019-06-08T02:40:03.012Z,307.76
2019-06-08T02:41:03.049Z,307.93
2019-06-08T02:42:02.986Z,308.57
2019-06-08T02:43:02.975Z,307.77
2019-06-08T02:44:02.971Z,311.30
2019-06-08T02:45:02.964Z,308.38
2019-06-08T02:46:02.993Z,308.55
2019-06-08T02:47:02.937Z,308.39
2019-06-08T02:48:02.935Z,308.22
2019-06-08T02:49:04.725Z,307.56
2019-06-08T02:50:02.907Z,308.71
2019-06-08T02:51:02.909Z,309.35
2019-06-08T02:52:02.894Z,308.85
2019-06-08T02:53:02.865Z,308.92
2019-06-08T02:54:02.866Z,308.67
2019-06-08T02:55:02.861Z,309.56
2019-06-08T02:56:02.834Z,307.07
2019-06-08T02:57:02.854Z,308.67
2019-06-08T02:58:02.812Z,311.11
2019-06-08T02:59:02.801Z,311.06
2019-06-08T03:00:02.793Z,310.93
2019-06-08T03:01:02.777Z,309.09
2019-06-08T03:02:02.794Z,308.96
2019-06-08T03:03:02.757Z,309.62
2019-06-08T03:04:02.746Z,308.87
2019-06-08T03:05:02.736Z,309.23
2019-06-08T03:06:02.723Z,308.89
2019-06-08T03:07:02.729Z,309.36
2019-06-08T03:08:02.697Z,309.06
2019-06-08T03:09:02.679Z,308.95
2019-06-08T03:10:02.679Z,309.19
2019-06-08T03:11:02.673Z,309.89
2019-06-08T03:12:02.691Z,310.53
2019-06-08T03:13:02.647Z,309.41
2019-06-08T03:14:02.629Z,310.59
2019-06-08T03:15:02.630Z,311.69
2019-06-08T03:16:02.618Z,311.30
2019-06-08T03:17:02.633Z,308.82
2019-06-08T03:18:02.593Z,310.11
2019-06-08T03:19:20.173Z,308.71
2019-06-08T03:20:03.564Z,308.93
2019-06-08T03:21:02.589Z,311.43
2019-06-08T03:22:02.566Z,309.85
2019-06-08T03:23:02.531Z,309.54
2019-06-08T03:24:02.509Z,309.07
2019-06-08T03:25:02.520Z,308.47
2019-06-08T03:26:02.504Z,307.29
2019-06-08T03:27:02.503Z,308.17
2019-06-08T03:28:02.466Z,306.87
2019-06-08T03:29:02.461Z,310.17
2019-06-08T03:30:14.971Z,307.60
2019-06-08T03:31:03.471Z,308.85
2019-06-08T03:32:02.456Z,308.38
2019-06-08T03:33:02.413Z,307.90
2019-06-08T03:34:02.411Z,308.11
2019-06-08T03:35:02.397Z,307.32
2019-06-08T03:36:02.407Z,307.60
2019-06-08T03:37:02.434Z,307.17
2019-06-08T03:38:02.367Z,307.48
2019-06-08T03:39:02.349Z,308.36
2019-06-08T03:40:02.340Z,307.73
2019-06-08T03:41:02.325Z,308.45
2019-06-08T03:42:02.354Z,307.22
2019-06-08T03:43:02.335Z,309.92
2019-06-08T03:44:02.293Z,309.08
2019-06-08T03:45:02.288Z,308.43
2019-06-08T03:46:02.279Z,311.78
2019-06-08T03:47:02.287Z,309.79
2019-06-08T03:48:02.269Z,310.19
2019-06-08T03:49:02.250Z,313.53
2019-06-08T03:50:02.242Z,308.68
2019-06-08T03:51:02.218Z,308.99
2019-06-08T03:52:02.199Z,309.38
2019-06-08T03:53:02.216Z,309.19
2019-06-08T03:54:02.187Z,309.79
2019-06-08T03:55:02.189Z,310.51
2019-06-08T03:56:02.163Z,309.33
2019-06-08T03:57:02.161Z,309.55
2019-06-08T03:58:02.159Z,309.98
2019-06-08T03:59:02.131Z,310.60
2019-06-08T04:00:02.144Z,310.36
2019-06-08T04:01:02.104Z,308.45
2019-06-08T04:02:02.925Z,309.25
2019-06-08T04:03:02.100Z,309.14
2019-06-08T04:04:02.068Z,308.67
2019-06-08T04:05:02.056Z,309.27
2019-06-08T04:06:02.054Z,308.57
2019-06-08T04:07:02.065Z,310.27
2019-06-08T04:08:02.049Z,308.57
2019-06-08T04:09:02.029Z,308.97
2019-06-08T04:10:02.009Z,309.80
2019-06-08T04:11:01.995Z,308.80
2019-06-08T04:12:01.975Z,308.58
2019-06-08T04:13:01.985Z,308.93
2019-06-08T04:14:01.965Z,308.60
2019-06-08T04:15:01.958Z,308.82
2019-06-08T04:16:01.950Z,308.34
2019-06-08T04:17:01.921Z,308.84
2019-06-08T04:18:01.929Z,308.08
2019-06-08T04:19:01.893Z,308.41
2019-06-08T04:20:10.472Z,308.33
2019-06-08T04:21:02.875Z,308.45
2019-06-08T04:22:01.863Z,309.67
2019-06-08T04:23:01.864Z,310.44
2019-06-08T04:24:01.838Z,309.12
2019-06-08T04:25:01.845Z,307.28
2019-06-08T04:26:01.823Z,307.22
2019-06-08T04:27:01.824Z,307.68
2019-06-08T04:28:01.825Z,307.98
2019-06-08T04:29:01.795Z,308.38
2019-06-08T04:30:01.784Z,308.93
2019-06-08T04:31:01.780Z,308.27
2019-06-08T04:32:01.763Z,307.72
2019-06-08T04:33:01.772Z,307.86
2019-06-08T04:34:01.732Z,307.72
2019-06-08T04:35:01.799Z,307.38
2019-06-08T04:36:01.711Z,307.41
2019-06-08T04:37:01.724Z,308.21
2019-06-08T04:38:01.716Z,308.35
2019-06-08T04:39:01.681Z,309.04
2019-06-08T04:40:01.679Z,308.75
2019-06-08T04:41:01.665Z,308.80
2019-06-08T04:42:01.644Z,309.98
2019-06-08T04:43:01.656Z,309.59
2019-06-08T04:44:01.627Z,309.67
2019-06-08T04:45:01.618Z,308.75
2019-06-08T04:46:01.603Z,309.96
2019-06-08T04:47:01.590Z,308.18
2019-06-08T04:48:01.644Z,308.48
2019-06-08T04:49:01.558Z,308.66
2019-06-08T04:50:20.318Z,308.87
2019-06-08T04:51:02.550Z,308.88
2019-06-08T04:52:01.532Z,309.03
2019-06-08T04:53:01.597Z,309.79
2019-06-08T04:54:01.516Z,309.47
2019-06-08T04:55:01.498Z,309.83
2019-06-08T04:56:01.534Z,309.50
2019-06-08T04:57:01.478Z,309.34
2019-06-08T04:58:01.491Z,308.64
2019-06-08T04:59:01.445Z,308.85
2019-06-08T05:00:11.113Z,309.96
2019-06-08T05:01:02.463Z,308.07
2019-06-08T05:02:01.430Z,308.45
2019-06-08T05:03:01.466Z,307.71
2019-06-08T05:04:01.397Z,308.29
2019-06-08T05:05:01.379Z,308.61
2019-06-08T05:06:01.385Z,308.19
2019-06-08T05:07:01.432Z,308.15
2019-06-08T05:08:01.385Z,308.02
2019-06-08T05:09:01.341Z,308.30
2019-06-08T05:10:01.334Z,308.30
2019-06-08T05:11:01.320Z,308.58
2019-06-08T05:12:01.305Z,309.10
2019-06-08T05:13:01.323Z,308.72
2019-06-08T05:14:01.278Z,308.34
2019-06-08T05:15:01.271Z,308.13
2019-06-08T05:16:01.271Z,307.72
2019-06-08T05:17:01.250Z,307.53
2019-06-08T05:18:01.322Z,307.60
2019-06-08T05:19:01.228Z,307.54
2019-06-08T05:20:01.205Z,306.50
2019-06-08T05:21:01.201Z,306.69
2019-06-08T05:22:01.189Z,306.96
2019-06-08T05:23:01.220Z,306.49
2019-06-08T05:24:01.175Z,307.13
2019-06-08T05:25:01.178Z,307.31
2019-06-08T05:26:01.195Z,306.94
2019-06-08T05:27:01.133Z,306.67
2019-06-08T05:28:01.154Z,307.42
2019-06-08T05:29:01.226Z,307.06
2019-06-08T05:30:08.087Z,307.17
2019-06-08T05:31:02.111Z,307.08
2019-06-08T05:32:01.089Z,306.89
2019-06-08T05:33:01.086Z,307.44
2019-06-08T05:34:01.079Z,306.85
2019-06-08T05:35:01.049Z,307.62
2019-06-08T05:36:01.037Z,307.26
2019-06-08T05:37:01.021Z,307.14
2019-06-08T05:38:01.011Z,307.35
2019-06-08T05:39:01.034Z,307.86
2019-06-08T05:40:00.993Z,306.80
2019-06-08T05:41:00.977Z,307.46
2019-06-08T05:42:00.967Z,307.50
2019-06-08T05:43:00.959Z,307.23
2019-06-08T05:44:00.959Z,308.46
2019-06-08T05:45:00.953Z,308.61
2019-06-08T05:46:00.935Z,308.00
2019-06-08T05:47:00.910Z,307.43
2019-06-08T05:48:00.924Z,308.06
2019-06-08T05:49:00.928Z,307.67
2019-06-08T05:50:00.885Z,307.38
2019-06-08T05:51:04.091Z,306.09
2019-06-08T05:52:00.865Z,306.80
2019-06-08T05:53:00.834Z,306.25
2019-06-08T05:54:02.956Z,307.07
2019-06-08T05:55:00.824Z,307.45
2019-06-08T05:56:00.808Z,306.38
2019-06-08T05:57:00.817Z,306.14
2019-06-08T05:58:00.824Z,306.47
2019-06-08T05:59:00.811Z,307.22
2019-06-08T06:00:08.424Z,306.35
2019-06-08T06:01:01.762Z,307.17
2019-06-08T06:02:00.739Z,307.32
2019-06-08T06:03:00.729Z,307.64
2019-06-08T06:04:00.735Z,307.81
2019-06-08T06:05:00.706Z,308.92
2019-06-08T06:06:00.699Z,308.79
2019-06-08T06:07:00.688Z,307.52
2019-06-08T06:08:00.673Z,306.42
2019-06-08T06:09:00.680Z,308.41
2019-06-08T06:10:00.668Z,307.99
2019-06-08T06:11:00.647Z,307.58
2019-06-08T06:12:00.626Z,306.57
2019-06-08T06:13:00.662Z,307.71
2019-06-08T06:14:00.608Z,306.73
2019-06-08T06:15:00.615Z,307.50
2019-06-08T06:16:00.584Z,306.91
2019-06-08T06:17:00.578Z,307.31
2019-06-08T06:18:00.566Z,307.47
2019-06-08T06:19:00.555Z,307.23
2019-06-08T06:20:00.570Z,307.28
2019-06-08T06:21:10.375Z,307.48
2019-06-08T06:22:01.512Z,308.22
2019-06-08T06:23:00.506Z,307.99
2019-06-08T06:24:00.493Z,308.15
2019-06-08T06:25:00.503Z,307.48
2019-06-08T06:26:00.464Z,307.37
2019-06-08T06:27:00.486Z,308.53
2019-06-08T06:28:00.463Z,308.23
2019-06-08T06:29:00.450Z,307.69
2019-06-08T06:30:00.454Z,307.27
2019-06-08T06:31:00.433Z,306.62
2019-06-08T06:32:00.420Z,305.83
2019-06-08T06:33:00.458Z,307.44
2019-06-08T06:34:00.414Z,307.52
2019-06-08T06:35:00.396Z,306.98
2019-06-08T06:36:00.363Z,308.28
2019-06-08T06:37:00.368Z,306.74
2019-06-08T06:38:00.338Z,307.32
2019-06-08T06:39:00.330Z,306.83
2019-06-08T06:40:00.345Z,307.23
2019-06-08T06:41:00.299Z,307.51
2019-06-08T06:42:00.297Z,307.68
2019-06-08T06:43:00.304Z,306.65
2019-06-08T06:44:00.286Z,306.27
2019-06-08T06:45:00.261Z,306.27
2019-06-08T06:46:00.281Z,306.68
2019-06-08T06:47:00.234Z,306.98
2019-06-08T06:48:00.247Z,306.65
2019-06-08T06:49:00.215Z,306.71
2019-06-08T06:50:00.206Z,306.23
2019-06-08T06:51:00.222Z,305.21
2019-06-08T06:52:00.188Z,306.08
2019-06-08T06:53:00.171Z,306.91
2019-06-08T06:54:00.152Z,306.37
2019-06-08T06:55:00.147Z,306.94
2019-06-08T06:56:00.152Z,305.22
2019-06-08T06:57:00.164Z,305.83
2019-06-08T06:58:00.108Z,304.93
2019-06-08T06:59:00.106Z,304.72
2019-06-08T07:00:00.084Z,304.72
2019-06-08T07:01:00.136Z,304.20
2019-06-08T07:02:00.072Z,305.75
2019-06-08T07:03:00.067Z,305.98
2019-06-08T07:04:00.045Z,305.83
2019-06-08T07:05:00.046Z,305.75
2019-06-08T07:06:00.039Z,306.10
2019-06-08T07:07:00.018Z,306.20
2019-06-08T07:07:59.998Z,306.31
2019-06-08T07:08:59.989Z,306.16
2019-06-08T07:09:59.990Z,306.76
2019-06-08T07:10:59.993Z,305.01
2019-06-08T07:11:59.953Z,306.01
2019-06-08T07:12:59.955Z,305.66
2019-06-08T07:13:59.937Z,305.87
2019-06-08T07:14:59.924Z,305.90
2019-06-08T07:16:16.885Z,306.10
2019-06-08T07:17:00.899Z,306.64
2019-06-08T07:17:59.888Z,306.51
2019-06-08T07:18:59.882Z,306.78
2019-06-08T07:19:59.870Z,305.41
2019-06-08T07:20:59.889Z,305.09
2019-06-08T07:21:59.847Z,306.04
2019-06-08T07:22:59.827Z,306.70
2019-06-08T07:23:59.819Z,306.71
2019-06-08T07:24:59.797Z,305.85
2019-06-08T07:25:59.821Z,306.75
2019-06-08T07:26:59.793Z,305.73
2019-06-08T07:27:59.770Z,306.11
2019-06-08T07:28:59.761Z,305.99
2019-06-08T07:29:59.763Z,306.28
2019-06-08T07:30:59.775Z,306.58
2019-06-08T07:31:59.724Z,306.11
2019-06-08T07:32:59.756Z,306.32
2019-06-08T07:33:59.996Z,304.78
2019-06-08T07:34:59.700Z,306.34
2019-06-08T07:35:59.904Z,305.94
2019-06-08T07:36:59.693Z,306.12
2019-06-08T07:37:59.872Z,305.81
2019-06-08T07:38:59.724Z,306.59
2019-06-08T07:40:00.151Z,306.36
2019-06-08T07:41:01.654Z,306.29
2019-06-08T07:42:00.010Z,306.68
2019-06-08T07:43:00.429Z,306.46
2019-06-08T07:43:59.593Z,306.44
2019-06-08T07:45:00.401Z,306.48
2019-06-08T07:45:59.579Z,306.12
2019-06-08T07:47:00.103Z,306.48
2019-06-08T07:48:00.587Z,305.99
2019-06-08T07:48:59.548Z,306.23
2019-06-08T07:49:59.638Z,305.29
2019-06-08T07:50:59.513Z,303.57
2019-06-08T07:52:09.743Z,304.10
2019-06-08T07:53:00.496Z,305.30
2019-06-08T07:53:59.920Z,305.02
2019-06-08T07:54:59.485Z,303.42
2019-06-08T07:55:59.851Z,303.80
2019-06-08T07:56:59.478Z,305.45
2019-06-08T07:58:00.358Z,304.70
2019-06-08T07:58:59.426Z,305.26
2019-06-08T08:00:00.187Z,304.53
2019-06-08T08:01:07.520Z,305.82
2019-06-08T08:02:00.422Z,304.96
2019-06-08T08:02:59.388Z,307.23
2019-06-08T08:03:59.377Z,307.50
2019-06-08T08:04:59.367Z,306.61
2019-06-08T08:06:00.008Z,306.73
2019-06-08T08:06:59.363Z,305.97
2019-06-08T08:07:59.324Z,308.14
2019-06-08T08:08:59.326Z,303.67
2019-06-08T08:09:59.320Z,306.31
2019-06-08T08:11:00.043Z,305.98
2019-06-08T08:11:59.681Z,305.23
2019-06-08T08:12:59.285Z,306.60
2019-06-08T08:13:59.283Z,306.76
2019-06-08T08:14:59.739Z,307.13
2019-06-08T08:16:00.719Z,305.79
2019-06-08T08:16:59.312Z,305.43
2019-06-08T08:17:59.646Z,307.80
2019-06-08T08:18:59.726Z,305.99
2019-06-08T08:19:59.415Z,306.25
2019-06-08T08:21:09.272Z,307.40
2019-06-08T08:22:10.710Z,306.46
2019-06-08T08:23:05.558Z,305.79
2019-06-08T08:24:01.582Z,307.60
2019-06-08T08:25:04.216Z,307.57
2019-06-08T08:26:01.787Z,307.45
2019-06-08T08:27:02.062Z,307.49
2019-06-08T08:28:00.667Z,307.14
2019-06-08T08:29:02.539Z,307.60
2019-06-08T08:30:01.713Z,306.79
2019-06-08T08:31:01.693Z,307.45
2019-06-08T08:32:01.771Z,308.26
2019-06-08T08:33:01.659Z,308.12
2019-06-08T08:34:05.322Z,306.89
2019-06-08T08:35:02.650Z,306.80
2019-06-08T08:36:01.724Z,307.16
2019-06-08T08:37:06.012Z,308.58
2019-06-08T08:38:03.901Z,307.71
2019-06-08T08:39:01.012Z,307.91
2019-06-08T08:40:01.363Z,307.65
2019-06-08T08:41:06.228Z,308.68
2019-06-08T08:42:04.790Z,307.10
2019-06-08T08:43:01.542Z,306.97
2019-06-08T08:44:04.203Z,307.62
2019-06-08T08:45:05.023Z,306.33
2019-06-08T08:46:01.822Z,308.15
2019-06-08T08:47:01.374Z,306.46
2019-06-08T08:48:14.407Z,306.33
2019-06-08T08:49:08.925Z,307.29
2019-06-08T08:50:01.868Z,304.55
2019-06-08T08:51:01.435Z,307.14
2019-06-08T08:52:00.221Z,306.59
2019-06-08T08:53:00.625Z,306.82
2019-06-08T08:54:03.938Z,305.89
2019-06-08T08:55:00.926Z,308.03
2019-06-08T08:56:02.097Z,307.24
2019-06-08T08:57:03.384Z,308.06
2019-06-08T08:58:01.777Z,307.31
2019-06-08T08:59:00.907Z,306.63
2019-06-08T09:00:03.494Z,306.50
2019-06-08T09:01:02.107Z,306.53
2019-06-08T09:02:01.053Z,306.80
2019-06-08T09:03:13.142Z,306.92
2019-06-08T09:04:03.295Z,307.55
2019-06-08T09:05:03.066Z,307.55
2019-06-08T09:06:01.510Z,307.10
2019-06-08T09:07:05.227Z,307.40
2019-06-08T09:08:02.125Z,307.41
2019-06-08T09:09:01.666Z,308.00
2019-06-08T09:10:01.823Z,306.98
2019-06-08T09:11:01.733Z,306.68
2019-06-08T09:12:02.287Z,307.15
2019-06-08T09:13:02.934Z,307.60
2019-06-08T09:14:05.196Z,306.93
2019-06-08T09:15:01.852Z,307.73
2019-06-08T09:16:00.867Z,306.74
2019-06-08T09:17:01.741Z,306.94
2019-06-08T09:18:00.966Z,307.11
2019-06-08T09:19:02.374Z,307.45
2019-06-08T09:20:03.277Z,305.75
2019-06-08T09:21:02.031Z,307.10
2019-06-08T09:22:01.202Z,305.72
2019-06-08T09:23:06.430Z,307.30
2019-06-08T09:24:03.456Z,307.18
2019-06-08T09:25:01.269Z,305.73
2019-06-08T09:26:05.782Z,306.00
2019-06-08T09:27:02.401Z,305.41
2019-06-08T09:28:01.257Z,303.10
2019-06-08T09:28:58.496Z,303.30
2019-06-08T09:30:00.736Z,303.43
2019-06-08T09:31:00.657Z,305.60
2019-06-08T09:32:00.412Z,305.02
2019-06-08T09:33:00.644Z,306.03
2019-06-08T09:34:08.529Z,306.87
2019-06-08T09:35:02.703Z,305.98
2019-06-08T09:36:02.407Z,306.55
2019-06-08T09:37:00.112Z,307.09
2019-06-08T09:38:01.083Z,306.64
2019-06-08T09:39:00.696Z,306.01
2019-06-08T09:39:59.014Z,306.90
2019-06-08T09:41:01.256Z,306.82
2019-06-08T09:42:01.924Z,306.57
2019-06-08T09:43:05.471Z,305.90
2019-06-08T09:44:02.190Z,307.37
2019-06-08T09:45:02.967Z,305.35
2019-06-08T09:46:00.561Z,306.88
2019-06-08T09:47:02.893Z,307.08
2019-06-08T09:48:01.602Z,307.96
2019-06-08T09:49:03.684Z,308.57
2019-06-08T09:50:03.270Z,307.95
2019-06-08T09:51:01.712Z,307.68
2019-06-08T09:52:00.343Z,306.16
2019-06-08T09:53:14.763Z,305.98
2019-06-08T09:54:02.647Z,307.94
2019-06-08T09:55:02.302Z,307.64
2019-06-08T09:56:02.351Z,307.46
2019-06-08T09:57:02.091Z,307.73
2019-06-08T09:58:03.955Z,306.59
2019-06-08T09:59:03.559Z,305.75
2019-06-08T10:00:02.195Z,306.56
2019-06-08T10:01:01.209Z,306.78
2019-06-08T10:02:05.151Z,307.12
2019-06-08T10:03:02.449Z,305.57
2019-06-08T10:04:00.820Z,307.56
2019-06-08T10:05:00.502Z,304.47
2019-06-08T10:06:01.544Z,306.08
2019-06-08T10:07:00.558Z,305.49
2019-06-08T10:08:00.473Z,306.86
2019-06-08T10:08:58.513Z,308.02
2019-06-08T10:10:00.361Z,307.54
2019-06-08T10:11:01.387Z,307.15
2019-06-08T10:12:01.298Z,305.95
2019-06-08T10:13:01.319Z,307.42
2019-06-08T10:14:02.653Z,305.93
2019-06-08T10:14:58.790Z,305.90
2019-06-08T10:16:01.939Z,306.86
2019-06-08T10:17:01.189Z,307.06
2019-06-08T10:17:58.924Z,307.28
2019-06-08T10:19:02.304Z,307.92
2019-06-08T10:20:00.632Z,308.31
2019-06-08T10:21:00.647Z,308.18
2019-06-08T10:21:58.838Z,304.89
2019-06-08T10:23:01.167Z,307.95
2019-06-08T10:24:01.003Z,308.48
2019-06-08T10:25:02.160Z,307.61
2019-06-08T10:26:01.377Z,308.05
2019-06-08T10:26:59.272Z,307.93
2019-06-08T10:28:02.818Z,307.80
2019-06-08T10:29:01.404Z,307.82
2019-06-08T10:29:59.984Z,308.57
2019-06-08T10:30:59.641Z,306.80
2019-06-08T10:31:57.720Z,307.43
2019-06-08T10:33:00.455Z,307.47
2019-06-08T10:34:01.528Z,307.76
2019-06-08T10:35:00.326Z,306.52
2019-06-08T10:36:01.508Z,306.14
2019-06-08T10:37:03.430Z,307.95
2019-06-08T10:38:02.610Z,306.75
2019-06-08T10:39:01.861Z,307.82
2019-06-08T10:40:01.921Z,306.88
2019-06-08T10:41:01.243Z,306.64
2019-06-08T10:42:01.109Z,306.94
2019-06-08T10:42:59.827Z,307.05
2019-06-08T10:43:59.109Z,307.70
2019-06-08T10:45:02.740Z,306.67
2019-06-08T10:46:05.145Z,308.13
2019-06-08T10:47:01.609Z,306.12
2019-06-08T10:47:59.387Z,305.98
2019-06-08T10:48:57.537Z,306.74
2019-06-08T10:50:01.638Z,306.76
2019-06-08T10:51:01.357Z,306.62
2019-06-08T10:52:01.603Z,308.31
2019-06-08T10:53:02.130Z,308.08
2019-06-08T10:53:59.860Z,308.17
2019-06-08T10:54:59.782Z,307.70
2019-06-08T10:55:58.233Z,307.71
2019-06-08T10:56:59.791Z,308.33
2019-06-08T10:57:58.435Z,308.84
2019-06-08T10:59:00.239Z,307.33
2019-06-08T10:59:57.925Z,307.92
2019-06-08T11:01:00.168Z,307.78
2019-06-08T11:02:00.955Z,308.24
2019-06-08T11:03:01.315Z,305.30
2019-06-08T11:03:58.413Z,306.80
2019-06-08T11:04:58.890Z,306.38
2019-06-08T11:06:00.731Z,305.35
2019-06-08T11:07:01.044Z,306.82
2019-06-08T11:07:59.325Z,307.83
2019-06-08T11:09:00.373Z,306.51
2019-06-08T11:09:58.707Z,305.87
2019-06-08T11:10:57.872Z,305.41
2019-06-08T11:11:58.338Z,305.83
2019-06-08T11:12:58.218Z,304.66
2019-06-08T11:14:00.051Z,306.72
2019-06-08T11:14:58.407Z,305.57
2019-06-08T11:15:58.645Z,306.56
2019-06-08T11:16:58.427Z,305.58
2019-06-08T11:18:01.328Z,304.85
2019-06-08T11:18:59.047Z,305.77
2019-06-08T11:20:00.489Z,306.18
2019-06-08T11:20:59.916Z,305.29
2019-06-08T11:21:58.053Z,305.69
2019-06-08T11:22:58.345Z,306.18
2019-06-08T11:24:07.343Z,305.61
2019-06-08T11:24:58.875Z,304.90
2019-06-08T11:25:59.517Z,304.66
2019-06-08T11:26:59.691Z,303.69
2019-06-08T11:27:58.674Z,303.95
2019-06-08T11:28:58.664Z,306.33
2019-06-08T11:29:57.558Z,305.76
2019-06-08T11:30:57.071Z,306.25
2019-06-08T11:31:58.637Z,304.45
2019-06-08T11:32:57.673Z,306.19
2019-06-08T11:33:58.888Z,306.81
2019-06-08T11:34:57.015Z,305.81
2019-06-08T11:35:58.146Z,305.70
2019-06-08T11:36:59.643Z,305.64
2019-06-08T11:37:58.524Z,304.87
2019-06-08T11:38:59.182Z,305.65
2019-06-08T11:39:57.662Z,306.78
2019-06-08T11:40:57.485Z,305.63
2019-06-08T11:41:58.756Z,305.93
2019-06-08T11:42:58.580Z,305.05
2019-06-08T11:43:59.577Z,304.14
2019-06-08T11:44:58.656Z,305.86
2019-06-08T11:45:58.404Z,306.17
2019-06-08T11:46:57.524Z,306.93
2019-06-08T11:47:58.376Z,301.79
2019-06-08T11:48:57.682Z,299.85
2019-06-08T11:49:57.690Z,302.13
2019-06-08T11:50:58.509Z,304.49
2019-06-08T11:51:58.352Z,304.79
2019-06-08T11:53:00.098Z,305.42
2019-06-08T11:53:59.263Z,303.75
2019-06-08T11:54:57.373Z,304.35
2019-06-08T11:55:58.595Z,302.06
2019-06-08T11:56:57.609Z,305.43
2019-06-08T11:57:58.583Z,305.47
2019-06-08T11:58:57.917Z,305.23
2019-06-08T11:59:58.470Z,301.19
2019-06-08T12:01:00.674Z,299.14
2019-06-08T12:01:58.638Z,301.43
2019-06-08T12:02:58.095Z,304.19
2019-06-08T12:03:57.982Z,304.08
2019-06-08T12:04:57.277Z,302.49
2019-06-08T12:05:58.310Z,303.98
2019-06-08T12:06:58.427Z,305.11
2019-06-08T12:07:57.820Z,305.17
2019-06-08T12:08:57.368Z,304.09
2019-06-08T12:09:58.352Z,304.76
2019-06-08T12:11:01.275Z,302.38
2019-06-08T12:11:58.110Z,304.28
2019-06-08T12:12:57.433Z,300.16
2019-06-08T12:13:58.474Z,303.97
2019-06-08T12:14:58.311Z,304.75
2019-06-08T12:15:58.752Z,305.59
2019-06-08T12:16:58.100Z,305.12
2019-06-08T12:17:58.648Z,305.51
2019-06-08T12:18:58.601Z,304.61
2019-06-08T12:19:57.725Z,305.94
2019-06-08T12:20:58.350Z,307.08
2019-06-08T12:21:58.012Z,301.87
2019-06-08T12:22:56.471Z,305.13
2019-06-08T12:23:56.449Z,302.52
2019-06-08T12:24:56.448Z,305.50
2019-06-08T12:25:56.504Z,306.72
2019-06-08T12:27:05.295Z,301.40
2019-06-08T12:27:58.523Z,304.58